createdAt,value
2023-05-06T00:02:57.569Z,6.70
2023-05-06T00:13:00.805Z,5.90
2023-05-06T00:23:03.949Z,6.20
2023-05-06T00:33:07.385Z,5.40
2023-05-06T00:43:10.748Z,6.00
2023-05-06T00:53:14.211Z,6.20
2023-05-06T01:03:17.562Z,5.60
2023-05-06T01:14:01.618Z,5.80
2023-05-06T01:24:04.944Z,5.20
2023-05-06T01:34:24.215Z,5.70
2023-05-06T01:44:29.565Z,5.00
2023-05-06T01:54:32.767Z,5.10
2023-05-06T02:04:38.002Z,5.40
2023-05-06T02:14:41.907Z,5.20
2023-05-06T02:24:45.049Z,5.90
2023-05-06T02:34:49.469Z,5.40
2023-05-06T02:44:52.593Z,5.40
2023-05-06T02:54:55.957Z,5.40
2023-05-06T03:04:59.257Z,5.30
2023-05-06T03:15:02.644Z,5.20
2023-05-06T03:25:06.432Z,5.70
2023-05-06T03:35:11.698Z,5.40
2023-05-06T03:45:17.863Z,5.10
2023-05-06T03:55:21.727Z,5.60
2023-05-06T04:05:26.156Z,5.90
2023-05-06T04:15:32.431Z,5.20
2023-05-06T04:25:38.143Z,6.60
2023-05-06T04:35:53.943Z,6.60
2023-05-06T04:45:57.437Z,6.10
2023-05-06T04:56:03.535Z,5.70
2023-05-06T05:06:07.890Z,5.70
2023-05-06T05:16:12.263Z,7.00
2023-05-06T05:26:16.654Z,6.10
2023-05-06T05:36:22.020Z,6.90
2023-05-06T05:46:26.784Z,6.60
2023-05-06T05:56:31.073Z,5.10
2023-05-06T06:06:35.371Z,5.50
2023-05-06T06:16:38.952Z,5.00
2023-05-06T06:26:42.349Z,3.80
2023-05-06T06:36:45.895Z,3.70
2023-05-06T06:46:49.091Z,4.50
2023-05-06T06:56:56.605Z,4.50
2023-05-06T07:06:59.944Z,4.30
2023-05-06T07:17:03.302Z,4.30
2023-05-06T07:27:07.235Z,4.00
2023-05-06T07:37:10.538Z,3.80
2023-05-06T07:47:27.589Z,3.90
2023-05-06T07:57:31.106Z,3.60
2023-05-06T08:07:34.385Z,3.40
2023-05-06T08:17:37.482Z,3.40
2023-05-06T08:27:40.965Z,3.60
2023-05-06T08:37:44.114Z,3.00
2023-05-06T08:47:47.848Z,3.40
2023-05-06T08:57:53.386Z,3.80
2023-05-06T09:07:56.681Z,4.30
2023-05-06T09:18:00.974Z,4.30
2023-05-06T09:28:10.178Z,4.00
2023-05-06T09:38:13.339Z,5.30
2023-05-06T09:48:16.729Z,4.10
2023-05-06T09:58:22.644Z,4.10
2023-05-06T10:08:27.166Z,3.40
2023-05-06T10:18:31.170Z,3.60
2023-05-06T10:28:41.177Z,3.70
2023-05-06T10:38:49.362Z,4.00
2023-05-06T10:49:04.872Z,4.20
2023-05-06T10:59:09.171Z,4.40
2023-05-06T11:09:23.612Z,4.30
2023-05-06T11:19:31.074Z,4.50
2023-05-06T11:29:34.274Z,4.50
2023-05-06T11:39:40.888Z,4.20
2023-05-06T11:59:54.813Z,6.70
2023-05-06T12:09:59.279Z,5.90
2023-05-06T12:20:02.949Z,5.60
2023-05-06T12:30:09.457Z,6.90
2023-05-06T12:40:17.880Z,6.70
2023-05-06T12:50:39.312Z,6.40
2023-05-06T13:00:42.466Z,8.60
2023-05-06T13:10:45.917Z,9.60
2023-05-06T13:21:02.469Z,9.70
2023-05-06T13:31:18.198Z,7.00
2023-05-06T13:41:25.520Z,5.90
2023-05-06T13:51:30.947Z,8.50
2023-05-06T14:01:34.283Z,7.50
2023-05-06T14:11:37.534Z,6.70
2023-05-06T14:21:40.651Z,5.50
2023-05-06T14:31:43.866Z,5.90
2023-05-06T14:41:47.284Z,4.20
2023-05-06T14:51:50.527Z,4.00
2023-05-06T15:01:53.590Z,4.30
2023-05-06T15:11:57.686Z,3.90
2023-05-06T15:22:01.060Z,3.90
2023-05-06T15:32:19.359Z,4.20
2023-05-06T15:42:24.231Z,3.90
2023-05-06T15:52:27.352Z,4.20
2023-05-06T16:02:31.005Z,4.20
2023-05-06T16:12:34.661Z,3.80
2023-05-06T16:22:40.758Z,4.30
2023-05-06T16:32:44.358Z,4.90
2023-05-06T16:42:51.149Z,5.20
2023-05-06T16:52:54.290Z,5.40
2023-05-06T17:02:58.965Z,5.50
2023-05-06T17:13:03.290Z,6.70
2023-05-06T17:23:08.969Z,8.50
2023-05-06T17:33:12.114Z,8.20
2023-05-06T17:43:15.476Z,8.80
2023-05-06T17:53:18.509Z,11.40
2023-05-06T18:03:22.743Z,11.00
2023-05-06T18:13:27.348Z,9.50
2023-05-06T18:23:30.738Z,9.80
2023-05-06T18:33:36.007Z,10.40
2023-05-06T18:43:39.186Z,12.00
2023-05-06T18:53:43.174Z,17.80
2023-05-06T19:03:47.019Z,12.30
2023-05-06T19:13:52.669Z,10.90
2023-05-06T19:23:59.949Z,10.10
2023-05-06T19:34:04.141Z,11.30
2023-05-06T19:44:07.527Z,10.20
2023-05-06T19:54:10.569Z,8.30
2023-05-06T20:04:13.751Z,7.40
2023-05-06T20:14:16.909Z,8.20
2023-05-06T20:24:20.392Z,8.10
2023-05-06T20:34:24.202Z,8.10
2023-05-06T20:44:27.536Z,8.70
2023-05-06T20:54:30.557Z,9.60
2023-05-06T21:04:33.970Z,8.30
2023-05-06T21:14:38.029Z,14.90
2023-05-06T21:24:41.080Z,8.60
2023-05-06T21:34:46.887Z,8.90
2023-05-06T21:44:50.394Z,9.60
2023-05-06T21:54:53.632Z,9.20
2023-05-06T22:04:56.813Z,10.70
2023-05-06T22:15:00.072Z,10.60
2023-05-06T22:25:04.024Z,12.50
2023-05-06T22:35:08.674Z,10.80
2023-05-06T22:45:12.322Z,9.10
2023-05-06T22:55:16.291Z,10.20
2023-05-06T23:05:19.447Z,9.00
2023-05-06T23:15:23.402Z,8.80
2023-05-06T23:25:27.690Z,10.30
2023-05-06T23:35:30.852Z,10.50
2023-05-06T23:45:34.033Z,10.30
2023-05-06T23:55:37.584Z,14.30
